Danzig, North Dakota
Current Conditions -  °F | °C
As of 4:35 AM on Thursday 27 Nov 2014 (Local Time) from K7L2 Reporting Station
Clear Clear  
Wind Chill: -19°   Ceiling: Unl
Heat Index: -8°   Visibility: 10mi
Dew Point: -11°   Wind: 5mph
Humidity: 84%   Direction: 100°E
Pressure: 30.42"   Gusts: NA
Location:  46.0926°N, 99.1856°W
Report Text: K7L2 271035Z AUTO 10004KT 10SM CLR M22/M24 A3042 RMK AO2
Loading
Personal Weather Stations






























Interactive Weather Map New forecast layout! Learn more

10-Day Weather Forecast

Advertisements
Track Severe Weather on mobile